Afton, Prince Edward Island

10:49 PM AST on December 11, 2017 (GMT -0400)
Cornwall Subdivision | | Change Station

Elev 270 ft 46.24 °N, 63.21 °W | Updated 10 seconds ago

Overcast
Overcast
27.3 °F
Feels Like 20 °F
N
7.0
Wind Variable Wind from NNW

Today
High -- | Low -- °F
--% Chance of Precip.
Yesterday
High -- | Low -- °F
Precip. -- in
Pressure 29.99 in
Visibility 3.0 miles
Clouds Few 800 ft
Overcast 3500 ft
Windchill 20 °F
Dew Point 23 °F
Humidity 85%
Rainfall 0.00 in
Snow Depth Not available.
7:45 AM 4:26 PM
Waning Crescent, 32% visible
METAR CYYG 120200Z 32009KT 3SM -SN FEW008 OVC035 M02/M03 A2998 RMK SF2SC6 SLP156
Pressure 29.99 in
Visibility 3.0 miles
Clouds Few 800 ft
Overcast 3500 ft
Windchill 20 °F
Dew Point 23 °F
Humidity 85%
Rainfall 0.00 in
Snow Depth Not available.
7:45 AM 4:26 PM
Waning Crescent, 32% visible
METAR CYYG 120200Z 32009KT 3SM -SN FEW008 OVC035 M02/M03 A2998 RMK SF2SC6 SLP156

Get Severe Weather Alerts

Thanks for signing up!

Be on the lookout for a verification email in your inbox.

You'll start receiving the daily forecast at 6 AM.

×

10-Day Weather Forecast

Almanac

Astronomy

Dec. 11, 2017 Rise Set
Actual Time
Civil Twilight
Nautical Twilight
Astronomical Twilight
Moon
Length of Visible Light
Length of Day
Tomorrow will be .
, % of the Moon is Illuminated

Today's Extremes

Country Highs Country Lows

Community

WunderPhotos

Category 6

Welcome to Category 6. This is the collective home for Weather Underground's featured writeups by Dr. Jeff Masters (right), Bob Henson (left), Chris Burt, and other regular contributors.

Nearby

Air Quality

  Air Quality AQ Index Pollutant
Not available.

Snow Depth

Station Depth Elevation

Earthquake Activity

City Distance Mag. Time & Date
Minimum magnitude displayed is 2.5.

Coastal Water Temperatures

Place Temperature

Stations

Nearby Weather Stations

Station Location Temp. Windchill Dew Point Humidity Wind Precip. Elev Updated Type
                   

Watches & Warnings

There are currently no watches in effect.